Airfield :
LOGIN :

Register | Disclaimer

   EN    FR    IT 

 










Legend :    VFR   Marginal VFR   IFR   Intensive IFR   Very Intensive IFR
Visi :
Ceiling :
>= 8 km
>= 3000ft
5 to 8 km
1000 to 3000 ft
1500m to 5 km
500 to 1000 ft
800 to 1500m
200 to 500 ft
< 800m
< 200 ft
Symbols :   Thunderstorms  Fog  Heavy snow  Heavy precipitations  Wind > 20 kt
SIGMETs :     Misc.  Thunderstorms  Icing  Turbulence  Mountain Waves  Volcanic Ashes






- Airport Elevation : 302 ft
- IATA code : CGN


EDDK - Cologne Bonn

CURRENT METAR :
  • 152020Z 10004KT 9999 SCT026 05/02 Q1004 NOSIG

EXPIRED METARs :
  • 151950Z 10004KT 070V170 9999 FEW026 05/01 Q1004 NOSIG
  • 151920Z 10004KT CAVOK 04/01 Q1003 NOSIG
  • 151850Z 15004KT CAVOK 05/01 Q1003 NOSIG
  • 151820Z 14006KT CAVOK 05/02 Q1003 NOSIG
  • 151750Z 14006KT 9999 FEW026 05/02 Q1003 NOSIG

TAF TAF EDDK
Valid from the 15 at 18:00 until the 17 at 00:00 UTC


151700Z 1518/1624 13005KT 9999 BKN025



MET'MAP, your aeronautical weather chart ! - Copyright ORBIFLY December 2007 - Disclaimer

ORBIFLY MET'MAP TEAM :

Programming & Development : Alexandra Zaïnal
Concept & Development : Baudouin d'Aumeries
Co-Development & Prog : Marc-Olivier Méhu
Technical & hardware support : Manuel Goepfert

Contact : metmap@orbifly.com




SOURCES & CREDITS :

   NOAA